Time;durP1;ratioP1;P1;durP2;ratioP2;P2;SDS_P1;SDS_P2;PMS_P1;PMS_P2;Temp;Humidity;BMP_temperature;BMP_pressure;BME280_temperature;BME280_humidity;BME280_pressure;Samples;Min_cycle;Max_cycle;Signal;HPM_P1;HPM_P2
2022/09/29 00:00:49;;;;;;;14.68;9.52;;;10.70;99.90;;;;;;5038123;28;20042;-89
2022/09/29 00:03:16;;;;;;;16.42;9.70;;;10.70;99.90;;;;;;5025823;28;20037;-89
2022/09/29 00:05:47;;;;;;;16.00;9.30;;;10.70;99.90;;;;;;5039397;28;20070;-89
2022/09/29 00:08:15;;;;;;;13.85;8.93;;;10.60;99.90;;;;;;5033255;28;20045;-90
2022/09/29 00:10:44;;;;;;;11.77;8.68;;;10.60;99.90;;;;;;5060016;22;20048;-77
2022/09/29 00:13:11;;;;;;;14.73;9.02;;;10.60;99.90;;;;;;5072231;28;20047;-77
2022/09/29 00:15:38;;;;;;;15.55;9.35;;;10.50;99.90;;;;;;5071759;28;20701;-77
2022/09/29 00:18:05;;;;;;;14.68;9.20;;;10.50;99.90;;;;;;5071440;28;20051;-77
2022/09/29 00:20:32;;;;;;;13.73;8.88;;;10.50;99.90;;;;;;5072635;28;20036;-77
2022/09/29 00:22:59;;;;;;;12.82;9.10;;;10.50;99.90;;;;;;5073790;28;20040;-77
2022/09/29 00:25:26;;;;;;;12.93;9.43;;;10.50;99.90;;;;;;5071824;28;20037;-77
2022/09/29 00:27:54;;;;;;;12.77;8.93;;;10.40;99.90;;;;;;5072076;28;20044;-77
2022/09/29 00:30:21;;;;;;;14.30;9.35;;;10.40;99.90;;;;;;5070246;28;20033;-77
2022/09/29 00:32:48;;;;;;;12.27;8.80;;;10.40;99.90;;;;;;5058005;28;20451;-77
2022/09/29 00:35:16;;;;;;;13.07;8.07;;;10.40;99.90;;;;;;5070218;28;20051;-77
2022/09/29 00:37:43;;;;;;;13.95;8.95;;;10.40;99.90;;;;;;5064168;28;20105;-77
2022/09/29 00:40:10;;;;;;;14.80;8.82;;;10.40;99.90;;;;;;5071726;28;20040;-77
2022/09/29 00:42:37;;;;;;;13.75;8.52;;;10.40;99.90;;;;;;5071856;28;20463;-77
2022/09/29 00:45:14;;;;;;;11.57;8.88;;;10.40;99.90;;;;;;5071580;28;20059;-77
2022/09/29 00:47:42;;;;;;;16.83;10.10;;;10.40;99.90;;;;;;5070400;28;20060;-79
2022/09/29 00:50:13;;;;;;;12.75;8.85;;;10.40;99.90;;;;;;5071375;28;20079;-77
2022/09/29 00:52:43;;;;;;;21.20;9.52;;;10.40;99.90;;;;;;5071630;28;20056;-77
2022/09/29 00:55:15;;;;;;;16.80;8.75;;;10.40;99.90;;;;;;5063183;28;20170;-77
2022/09/29 00:57:47;;;;;;;14.57;8.88;;;10.30;99.90;;;;;;5071732;28;20397;-77
2022/09/29 01:00:16;;;;;;;13.27;8.02;;;10.30;99.90;;;;;;5071524;28;20131;-77
2022/09/29 01:02:45;;;;;;;13.73;8.70;;;10.30;99.90;;;;;;5071428;28;20515;-77
2022/09/29 01:05:15;;;;;;;12.85;9.18;;;10.30;99.90;;;;;;5071093;28;20052;-77
2022/09/29 01:07:45;;;;;;;13.23;9.55;;;10.30;99.90;;;;;;5071416;28;20037;-77
2022/09/29 01:10:15;;;;;;;11.95;8.40;;;10.30;99.90;;;;;;5068903;28;20055;-77
2022/09/29 01:12:44;;;;;;;13.10;9.05;;;10.30;99.90;;;;;;5070990;28;20059;-77
2022/09/29 01:15:11;;;;;;;13.77;8.93;;;10.40;99.90;;;;;;5072317;28;20051;-77
2022/09/29 01:17:40;;;;;;;14.15;9.73;;;10.30;99.90;;;;;;5071271;28;20639;-79
2022/09/29 01:20:11;;;;;;;14.98;8.93;;;10.30;99.90;;;;;;5067416;28;20436;-77
2022/09/29 01:23:30;;;;;;;15.43;9.32;;;10.30;99.90;;;;;;5071017;28;20110;-77
2022/09/29 01:26:39;;;;;;;12.95;8.15;;;10.30;99.90;;;;;;5008304;28;20049;-77
2022/09/29 01:29:27;;;;;;;14.30;8.85;;;10.20;99.90;;;;;;4989412;28;20105;-77
2022/09/29 01:31:58;;;;;;;18.85;9.63;;;10.20;99.90;;;;;;5067640;28;20053;-77
2022/09/29 01:34:31;;;;;;;12.48;8.50;;;10.20;99.90;;;;;;5050558;28;20505;-77
2022/09/29 01:37:05;;;;;;;12.77;8.82;;;10.20;99.90;;;;;;5050830;28;20052;-78
2022/09/29 01:39:37;;;;;;;11.52;8.57;;;10.20;99.90;;;;;;5051005;28;20037;-77
2022/09/29 01:42:07;;;;;;;15.20;9.43;;;10.20;99.90;;;;;;5036166;28;20053;-77
2022/09/29 01:44:37;;;;;;;12.82;9.23;;;10.10;99.90;;;;;;5067985;28;20051;-77
2022/09/29 01:47:08;;;;;;;14.15;9.00;;;10.10;99.90;;;;;;5066203;28;20052;-77
2022/09/29 01:49:38;;;;;;;14.57;9.48;;;10.10;99.90;;;;;;5082598;28;20091;-77
2022/09/29 01:52:08;;;;;;;14.10;9.48;;;10.10;99.90;;;;;;5090413;28;20502;-77
2022/09/29 01:54:41;;;;;;;11.57;7.78;;;10.00;99.90;;;;;;5056801;28;20044;-77
2022/09/29 01:57:10;;;;;;;11.73;8.23;;;10.00;99.90;;;;;;5053813;28;20044;-77
2022/09/29 01:59:43;;;;;;;12.98;8.82;;;10.00;99.90;;;;;;5070617;28;20040;-77
2022/09/29 02:02:15;;;;;;;16.45;8.98;;;10.00;99.90;;;;;;5066042;28;20036;-77
2022/09/29 02:04:44;;;;;;;14.52;9.18;;;10.00;99.90;;;;;;5065100;28;20044;-77
2022/09/29 02:07:15;;;;;;;12.65;8.88;;;10.00;99.90;;;;;;5069242;28;20051;-77
2022/09/29 02:09:46;;;;;;;11.80;8.48;;;10.00;99.90;;;;;;5060080;28;20555;-77
2022/09/29 02:12:15;;;;;;;11.80;8.20;;;9.90;99.90;;;;;;5069903;28;20040;-77
2022/09/29 02:14:43;;;;;;;15.35;9.00;;;9.90;99.90;;;;;;5062768;28;20041;-77
2022/09/29 02:17:18;;;;;;;12.35;8.13;;;9.90;99.90;;;;;;5060890;28;20044;-80
2022/09/29 02:19:46;;;;;;;12.52;8.68;;;9.90;99.90;;;;;;5069916;28;20048;-77
2022/09/29 02:22:13;;;;;;;14.10;8.65;;;9.90;99.90;;;;;;5069538;28;20028;-77
2022/09/29 02:24:40;;;;;;;12.68;8.63;;;9.90;99.90;;;;;;5074589;28;20119;-79
2022/09/29 02:27:07;;;;;;;12.15;8.57;;;9.90;99.90;;;;;;5067819;28;20043;-79
2022/09/29 02:29:35;;;;;;;13.63;8.55;;;9.90;99.90;;;;;;5069422;28;20048;-77
2022/09/29 02:32:03;;;;;;;13.32;8.43;;;9.90;99.90;;;;;;5069646;28;20036;-77
2022/09/29 02:34:33;;;;;;;13.55;8.65;;;9.90;99.90;;;;;;5069472;28;20054;-77
2022/09/29 02:37:05;;;;;;;13.57;9.23;;;9.80;99.90;;;;;;5069750;28;20045;-79
2022/09/29 02:39:39;;;;;;;12.52;7.85;;;9.80;99.90;;;;;;5045200;28;20525;-76
2022/09/29 02:42:15;;;;;;;10.88;7.47;;;9.80;99.90;;;;;;5067307;28;20683;-79
2022/09/29 02:44:53;;;;;;;13.57;8.30;;;9.80;99.90;;;;;;5069266;28;20044;-77
2022/09/29 02:47:31;;;;;;;13.68;8.52;;;9.80;99.90;;;;;;5064590;28;20045;-77
2022/09/29 02:50:14;;;;;;;13.43;8.55;;;9.70;99.90;;;;;;5068808;28;20101;-77
2022/09/29 02:52:46;;;;;;;10.80;7.85;;;9.70;99.90;;;;;;5063881;28;20036;-77
2022/09/29 02:55:18;;;;;;;13.68;8.43;;;9.70;99.90;;;;;;5045826;28;20069;-77
2022/09/29 02:57:49;;;;;;;14.13;8.18;;;9.70;99.90;;;;;;5061912;28;20044;-79
2022/09/29 03:00:17;;;;;;;;;;;9.70;99.90;;;;;;5078022;28;20501;-77
2022/09/29 03:02:44;;;;;;;13.00;7.70;;;9.60;99.90;;;;;;5068413;28;19974;-79
2022/09/29 03:05:14;;;;;;;14.18;8.43;;;9.70;99.90;;;;;;5069342;28;20511;-77
2022/09/29 03:07:41;;;;;;;12.25;7.85;;;9.60;99.90;;;;;;5068065;28;20053;-77
2022/09/29 03:10:10;;;;;;;11.45;7.78;;;9.60;99.90;;;;;;5068843;28;20037;-79
2022/09/29 03:12:37;;;;;;;11.70;7.97;;;9.60;99.90;;;;;;5069223;28;20067;-79
2022/09/29 03:15:06;;;;;;;10.80;7.85;;;9.60;99.90;;;;;;5053920;28;20051;-79
2022/09/29 03:17:33;;;;;;;12.00;8.20;;;9.50;99.90;;;;;;5074226;28;20457;-79
2022/09/29 03:19:59;;;;;;;11.93;8.40;;;9.60;99.90;;;;;;5089008;28;20127;-79
2022/09/29 03:22:28;;;;;;;16.17;8.73;;;9.50;99.90;;;;;;5089222;28;20051;-78
2022/09/29 03:24:54;;;;;;;14.60;8.95;;;9.50;99.90;;;;;;5088766;28;20050;-78
2022/09/29 03:27:21;;;;;;;13.45;9.02;;;9.50;99.90;;;;;;5076623;28;20037;-79
2022/09/29 03:29:49;;;;;;;12.10;8.13;;;9.50;99.90;;;;;;5068577;28;20047;-78
2022/09/29 03:32:16;;;;;;;12.45;7.75;;;9.50;99.90;;;;;;5068371;28;20032;-79
2022/09/29 03:34:43;;;;;;;12.13;7.93;;;9.50;99.90;;;;;;5086271;28;20734;-79
2022/09/29 03:37:10;;;;;;;11.15;7.93;;;9.50;99.90;;;;;;5095693;28;20048;-78
2022/09/29 03:39:38;;;;;;;11.02;7.75;;;9.50;99.90;;;;;;5081496;28;20043;-78
2022/09/29 03:42:05;;;;;;;11.35;7.90;;;9.50;99.90;;;;;;5075165;28;20041;-79
2022/09/29 03:44:32;;;;;;;12.40;8.18;;;9.50;99.90;;;;;;5074983;28;20052;-78
2022/09/29 03:46:59;;;;;;;11.02;7.22;;;9.40;99.90;;;;;;5073538;28;20115;-78
2022/09/29 03:49:26;;;;;;;11.90;7.57;;;9.40;99.90;;;;;;5084904;28;20050;-79
2022/09/29 03:51:53;;;;;;;11.27;7.55;;;9.40;99.90;;;;;;5076579;28;20049;-79
2022/09/29 03:54:23;;;;;;;9.52;6.72;;;9.40;99.90;;;;;;5055144;28;20052;-79
2022/09/29 03:56:54;;;;;;;11.82;7.68;;;9.40;99.90;;;;;;5055283;28;20079;-78
2022/09/29 03:59:21;;;;;;;11.98;7.75;;;9.40;99.90;;;;;;5063481;28;20048;-78
2022/09/29 04:01:53;;;;;;;12.02;7.53;;;9.40;99.90;;;;;;5075435;28;20053;-79
2022/09/29 04:04:20;;;;;;;11.35;7.25;;;9.30;99.90;;;;;;5064404;28;20052;-78
2022/09/29 04:06:47;;;;;;;11.73;7.15;;;9.30;99.90;;;;;;5082581;28;20040;-78
2022/09/29 04:09:13;;;;;;;11.18;7.20;;;9.30;99.90;;;;;;5094575;28;20048;-79
2022/09/29 04:11:42;;;;;;;12.27;6.82;;;9.20;99.90;;;;;;5073587;28;20040;-79
2022/09/29 04:14:13;;;;;;;10.48;7.70;;;9.20;99.90;;;;;;5075150;28;20051;-81
2022/09/29 04:16:40;;;;;;;12.77;8.60;;;9.20;99.90;;;;;;5075386;28;20066;-79
2022/09/29 04:19:07;;;;;;;11.50;8.13;;;9.20;99.90;;;;;;5057108;28;20800;-82
2022/09/29 04:21:34;;;;;;;14.02;7.68;;;9.20;99.90;;;;;;5065487;28;20033;-81
2022/09/29 04:24:04;;;;;;;12.55;8.27;;;9.20;99.90;;;;;;5072453;28;20127;-82
2022/09/29 04:26:33;;;;;;;10.45;7.38;;;9.20;99.90;;;;;;5075031;28;20054;-81
2022/09/29 04:29:02;;;;;;;11.60;7.07;;;9.20;99.90;;;;;;5075415;28;20043;-81
2022/09/29 04:31:30;;;;;;;9.73;6.75;;;9.20;99.90;;;;;;5074962;28;20045;-81
2022/09/29 04:33:57;;;;;;;10.68;7.07;;;9.30;99.90;;;;;;5066179;28;20048;-80
2022/09/29 04:36:24;;;;;;;10.48;6.65;;;9.10;99.90;;;;;;5072660;28;20424;-81
2022/09/29 04:38:53;;;;;;;10.23;6.88;;;9.20;99.90;;;;;;5079613;28;20132;-80
2022/09/29 04:41:20;;;;;;;9.68;6.75;;;9.10;99.90;;;;;;5063396;28;20041;-80
2022/09/29 04:43:53;;;;;;;10.65;7.43;;;9.10;99.90;;;;;;5075021;28;20041;-80
2022/09/29 04:46:19;;;;;;;11.70;7.63;;;9.10;99.90;;;;;;5068438;28;20112;-80
2022/09/29 04:48:53;;;;;;;10.00;6.97;;;9.10;99.90;;;;;;5071733;28;20041;-80
2022/09/29 04:51:20;;;;;;;9.48;6.82;;;9.10;99.90;;;;;;5056333;28;20485;-81
2022/09/29 04:53:46;;;;;;;12.13;7.28;;;9.10;99.90;;;;;;5061458;28;20044;-81
2022/09/29 04:56:13;;;;;;;9.90;6.60;;;9.10;99.90;;;;;;5056964;28;20055;-81
2022/09/29 04:58:40;;;;;;;10.75;6.90;;;9.00;99.90;;;;;;5075523;28;20047;-82
2022/09/29 05:01:14;;;;;;;10.73;7.20;;;9.00;99.90;;;;;;5070007;28;20072;-82
2022/09/29 05:03:41;;;;;;;;;;;9.00;99.90;;;;;;5045500;28;20063;-81
2022/09/29 05:06:10;;;;;;;9.95;7.25;;;9.00;99.90;;;;;;5053894;28;20550;-82
2022/09/29 05:08:40;;;;;;;12.15;6.93;;;9.00;99.90;;;;;;5058355;28;20117;-81
2022/09/29 05:11:10;;;;;;;10.30;7.30;;;9.00;99.90;;;;;;5064605;28;21496;-80
2022/09/29 05:13:37;;;;;;;10.55;7.43;;;9.00;99.90;;;;;;5052400;28;20119;-80
2022/09/29 05:16:05;;;;;;;9.65;6.95;;;9.00;99.90;;;;;;5059256;28;20116;-81
2022/09/29 05:18:33;;;;;;;8.88;6.28;;;9.00;99.90;;;;;;5064293;28;20048;-81
2022/09/29 05:21:07;;;;;;;12.20;7.30;;;9.00;99.90;;;;;;5065373;28;20037;-80
2022/09/29 05:23:35;;;;;;;10.85;7.57;;;8.90;99.90;;;;;;5060576;28;20045;-79
2022/09/29 05:26:03;;;;;;;11.73;7.00;;;8.90;99.90;;;;;;5069487;28;20044;-79
2022/09/29 05:28:30;;;;;;;15.48;7.88;;;8.90;99.90;;;;;;5069780;28;20049;-80
2022/09/29 05:31:03;;;;;;;12.50;7.50;;;8.90;99.90;;;;;;5036493;28;20048;-81
2022/09/29 05:33:30;;;;;;;11.65;8.02;;;8.90;99.90;;;;;;5064587;28;20378;-79
2022/09/29 05:36:00;;;;;;;13.77;8.82;;;8.90;99.90;;;;;;5064359;28;20045;-80
2022/09/29 05:38:27;;;;;;;12.77;7.82;;;8.90;99.90;;;;;;5067309;28;20045;-79
2022/09/29 05:40:57;;;;;;;14.65;7.97;;;8.90;99.90;;;;;;5068817;28;20048;-80
2022/09/29 05:43:25;;;;;;;13.37;8.37;;;8.90;99.90;;;;;;5069482;28;20090;-79
2022/09/29 05:45:59;;;;;;;10.95;7.38;;;8.80;99.90;;;;;;5062563;28;20064;-80
2022/09/29 05:48:29;;;;;;;11.52;7.38;;;8.80;99.90;;;;;;5059083;28;20052;-81
2022/09/29 05:50:56;;;;;;;11.23;7.60;;;8.80;99.90;;;;;;5056097;28;20051;-80
2022/09/29 05:53:23;;;;;;;10.10;7.15;;;8.80;99.90;;;;;;5065094;28;20040;-80
2022/09/29 05:55:50;;;;;;;11.10;6.78;;;8.80;99.90;;;;;;5058504;28;20040;-80
2022/09/29 05:58:18;;;;;;;12.20;6.97;;;8.80;99.90;;;;;;5048056;28;20040;-80
2022/09/29 06:00:45;;;;;;;11.75;7.72;;;8.80;99.90;;;;;;5069246;28;20102;-80
2022/09/29 06:03:12;;;;;;;13.13;7.30;;;8.80;99.90;;;;;;5063840;28;20543;-80
2022/09/29 06:05:40;;;;;;;14.27;7.75;;;8.80;99.90;;;;;;5061269;28;20037;-80
2022/09/29 06:08:07;;;;;;;13.07;9.20;;;8.80;99.90;;;;;;5067876;28;20119;-80
2022/09/29 06:10:34;;;;;;;15.32;9.05;;;8.90;99.90;;;;;;5058668;28;20044;-81
2022/09/29 06:13:02;;;;;;;12.65;8.70;;;8.90;99.90;;;;;;5032115;28;20462;-80
2022/09/29 06:15:30;;;;;;;13.68;9.10;;;8.90;99.90;;;;;;5056990;28;20036;-80
2022/09/29 06:17:58;;;;;;;14.13;9.20;;;8.90;99.90;;;;;;5067815;28;20115;-80
2022/09/29 06:20:26;;;;;;;10.77;7.85;;;9.00;99.90;;;;;;5073397;23;20502;-84
2022/09/29 06:22:54;;;;;;;12.73;8.70;;;8.90;99.90;;;;;;5048130;28;20044;-83
2022/09/29 06:25:21;;;;;;;12.93;9.13;;;9.00;99.90;;;;;;5049379;28;20142;-84
2022/09/29 06:27:48;;;;;;;13.70;9.52;;;9.00;99.90;;;;;;5050639;28;20056;-83
2022/09/29 06:30:15;;;;;;;15.20;10.70;;;9.00;99.90;;;;;;5049328;28;20416;-84
2022/09/29 06:32:43;;;;;;;17.33;10.73;;;9.10;99.90;;;;;;5049637;28;20047;-85
2022/09/29 06:37:51;;;;;;;17.00;11.07;;;9.10;99.90;;;;;;5015286;28;20048;-85
2022/09/29 06:40:20;;;;;;;20.42;14.27;;;9.20;99.90;;;;;;5063130;28;20045;-84
2022/09/29 06:42:47;;;;;;;25.88;16.75;;;9.20;99.90;;;;;;5031082;28;20045;-85
2022/09/29 06:45:14;;;;;;;28.02;18.67;;;9.20;99.90;;;;;;5049076;28;20091;-85
2022/09/29 06:47:42;;;;;;;28.42;18.77;;;9.30;99.90;;;;;;5046528;28;20040;-85
2022/09/29 06:50:09;;;;;;;32.17;19.10;;;9.30;99.90;;;;;;5069005;28;20140;-85
2022/09/29 06:52:36;;;;;;;26.38;17.35;;;9.40;99.90;;;;;;5040492;28;20094;-85
2022/09/29 06:55:04;;;;;;;27.08;17.67;;;9.40;99.90;;;;;;5049132;28;20128;-84
2022/09/29 06:57:31;;;;;;;25.80;16.85;;;9.40;99.90;;;;;;5044942;28;20521;-85
2022/09/29 06:59:58;;;;;;;26.60;16.88;;;9.40;99.90;;;;;;5057596;28;20424;-85
2022/09/29 07:02:25;;;;;;;24.48;16.20;;;9.50;99.90;;;;;;5049033;28;20043;-85
2022/09/29 07:04:53;;;;;;;20.10;14.25;;;9.60;99.90;;;;;;5048210;28;20055;-85
2022/09/29 07:07:20;;;;;;;24.38;16.63;;;9.60;99.90;;;;;;5046843;28;20045;-85
2022/09/29 07:09:47;;;;;;;22.27;14.80;;;9.70;99.90;;;;;;5030868;28;20053;-85
2022/09/29 07:12:13;;;;;;;23.85;15.48;;;9.70;99.90;;;;;;5048779;28;20051;-85
2022/09/29 07:14:40;;;;;;;22.73;13.85;;;9.80;99.90;;;;;;5048584;28;20045;-86
2022/09/29 07:17:08;;;;;;;19.90;14.23;;;9.90;99.90;;;;;;5049995;28;20051;-86
2022/09/29 07:19:34;;;;;;;22.95;13.85;;;9.90;99.90;;;;;;5057386;28;20122;-86
2022/09/29 07:22:03;;;;;;;20.92;13.63;;;10.00;99.90;;;;;;5048415;28;20051;-86
2022/09/29 07:24:30;;;;;;;23.63;14.07;;;10.00;99.90;;;;;;5047750;28;20040;-85
2022/09/29 07:26:57;;;;;;;21.50;14.13;;;10.10;99.90;;;;;;5055498;28;20036;-86
2022/09/29 07:29:24;;;;;;;23.05;13.75;;;10.20;99.90;;;;;;5062172;28;20133;-85
2022/09/29 07:31:51;;;;;;;23.80;14.32;;;10.20;99.90;;;;;;5059828;28;20053;-85
2022/09/29 07:34:18;;;;;;;19.50;13.80;;;10.20;99.90;;;;;;5047873;28;20756;-85
2022/09/29 07:36:45;;;;;;;22.85;14.35;;;10.30;99.90;;;;;;5049084;28;20052;-85
2022/09/29 07:39:13;;;;;;;17.52;13.18;;;10.30;99.90;;;;;;5064406;28;20044;-86
2022/09/29 07:41:40;;;;;;;26.98;13.15;;;10.40;99.90;;;;;;5055644;28;20045;-86
2022/09/29 07:44:07;;;;;;;21.77;13.68;;;10.50;99.90;;;;;;5054949;28;20041;-85
2022/09/29 07:46:34;;;;;;;23.10;13.20;;;10.50;99.90;;;;;;5050084;28;20045;-85
2022/09/29 07:49:01;;;;;;;21.50;13.70;;;10.60;99.90;;;;;;5041473;28;20516;-84
2022/09/29 07:51:28;;;;;;;20.30;13.23;;;10.60;99.90;;;;;;5060468;28;20051;-85
2022/09/29 07:53:55;;;;;;;17.48;12.40;;;10.70;99.90;;;;;;5030677;28;20049;-85
2022/09/29 07:56:23;;;;;;;18.08;12.57;;;10.80;99.90;;;;;;5047606;28;20065;-85
2022/09/29 07:58:51;;;;;;;18.63;12.38;;;10.80;99.90;;;;;;5047468;28;20099;-84
2022/09/29 08:01:19;;;;;;;17.70;12.45;;;10.90;99.90;;;;;;5053786;28;20044;-85
2022/09/29 08:03:50;;;;;;;18.70;12.93;;;11.00;99.90;;;;;;5028333;28;20061;-86
2022/09/29 08:06:18;;;;;;;18.13;13.48;;;11.00;99.90;;;;;;5034067;28;20068;-86
2022/09/29 08:08:45;;;;;;;19.35;11.38;;;11.10;99.90;;;;;;5046440;28;20045;-85
2022/09/29 08:11:14;;;;;;;18.33;12.13;;;11.10;99.90;;;;;;5030149;28;20493;-86
2022/09/29 08:13:42;;;;;;;18.48;12.65;;;11.30;99.90;;;;;;5047664;28;20056;-86
2022/09/29 08:16:12;;;;;;;16.38;12.32;;;11.30;99.90;;;;;;5042693;28;20077;-85
2022/09/29 08:18:40;;;;;;;18.02;12.60;;;11.40;99.90;;;;;;5038128;28;20049;-86
2022/09/29 08:21:08;;;;;;;17.65;11.93;;;11.40;99.90;;;;;;5069394;28;20040;-86
2022/09/29 08:23:36;;;;;;;17.83;11.82;;;11.50;99.90;;;;;;5047910;28;20387;-86
2022/09/29 08:26:04;;;;;;;15.68;10.98;;;11.50;99.90;;;;;;5048677;28;20124;-85
2022/09/29 08:28:32;;;;;;;16.67;11.73;;;11.50;99.90;;;;;;5066237;28;20040;-86
2022/09/29 08:31:03;;;;;;;17.55;11.82;;;11.60;99.90;;;;;;5062750;28;20051;-86
2022/09/29 08:33:30;;;;;;;18.02;11.48;;;11.70;99.90;;;;;;5048100;28;20128;-85
2022/09/29 08:35:57;;;;;;;17.00;11.63;;;11.70;99.90;;;;;;5049727;28;20130;-85
2022/09/29 08:38:25;;;;;;;15.43;11.13;;;11.80;99.90;;;;;;5062973;28;20044;-85
2022/09/29 08:40:52;;;;;;;15.43;10.57;;;11.80;99.90;;;;;;5052628;28;20052;-87
2022/09/29 08:43:25;;;;;;;16.90;10.20;;;11.90;99.90;;;;;;5033012;28;20134;-87
2022/09/29 08:45:58;;;;;;;15.27;10.80;;;11.90;99.90;;;;;;5050456;28;20099;-86
2022/09/29 08:48:29;;;;;;;15.05;9.93;;;12.20;99.90;;;;;;5064114;28;20045;-86
2022/09/29 08:50:57;;;;;;;;;;;12.10;99.90;;;;;;5055302;28;20087;-86
2022/09/29 08:53:26;;;;;;;11.90;7.93;;;12.10;99.90;;;;;;5051103;28;19932;-86
2022/09/29 08:55:56;;;;;;;12.65;8.27;;;12.10;99.90;;;;;;5050230;28;20045;-86
2022/09/29 08:58:24;;;;;;;12.90;7.88;;;12.20;99.90;;;;;;5056749;28;20040;-86
2022/09/29 09:00:59;;;;;;;11.82;7.70;;;12.20;99.90;;;;;;5050959;28;20767;-86
2022/09/29 09:04:04;;;;;;;16.88;8.32;;;12.30;99.90;;;;;;5041255;28;20064;-86
2022/09/29 09:06:38;;;;;;;15.07;8.23;;;12.30;99.90;;;;;;5023013;28;20430;-87
2022/09/29 09:09:26;;;;;;;11.25;6.85;;;12.30;99.90;;;;;;5058145;28;20049;-86
2022/09/29 09:12:15;;;;;;;13.52;6.50;;;12.40;99.90;;;;;;5050868;28;20048;-86
2022/09/29 09:15:03;;;;;;;10.35;5.43;;;12.50;99.90;;;;;;5050280;28;20405;-86
2022/09/29 09:17:47;;;;;;;13.05;5.68;;;12.50;99.90;;;;;;5036483;28;20059;-86
2022/09/29 09:20:25;;;;;;;10.18;5.78;;;12.50;99.90;;;;;;5049028;28;20116;-86
2022/09/29 09:22:56;;;;;;;13.65;6.05;;;12.60;99.90;;;;;;5054225;28;20045;-85
2022/09/29 09:25:29;;;;;;;11.65;6.65;;;12.60;99.90;;;;;;5050494;28;20040;-86
2022/09/29 09:28:04;;;;;;;13.25;6.22;;;12.70;99.90;;;;;;5050643;28;20040;-86
2022/09/29 09:30:38;;;;;;;10.02;5.47;;;12.60;99.90;;;;;;5056933;28;20075;-86
2022/09/29 09:33:08;;;;;;;12.52;6.00;;;12.70;99.90;;;;;;5049689;28;20049;-85
2022/09/29 09:35:41;;;;;;;8.80;5.43;;;12.70;99.90;;;;;;5048497;28;20464;-81
2022/09/29 09:38:15;;;;;;;11.88;5.55;;;12.80;99.90;;;;;;5059797;28;20048;-81
2022/09/29 09:40:45;;;;;;;9.98;6.13;;;12.80;99.90;;;;;;5070738;28;20045;-81
2022/09/29 09:43:15;;;;;;;11.77;5.90;;;12.90;99.90;;;;;;5051769;28;20041;-81
2022/09/29 09:45:48;;;;;;;10.52;5.47;;;12.90;99.90;;;;;;5055235;28;20144;-81
2022/09/29 09:48:19;;;;;;;9.75;5.57;;;12.90;99.90;;;;;;5053176;28;20056;-81
2022/09/29 09:50:48;;;;;;;13.32;6.13;;;13.00;99.90;;;;;;5061615;28;20055;-81
2022/09/29 09:53:20;;;;;;;9.10;5.90;;;13.00;99.90;;;;;;5049927;28;20052;-81
2022/09/29 09:55:53;;;;;;;11.55;5.90;;;13.10;99.90;;;;;;5049151;28;20052;-81
2022/09/29 09:58:29;;;;;;;9.55;5.55;;;13.10;99.90;;;;;;5060424;28;20044;-81
2022/09/29 10:00:59;;;;;;;11.00;5.38;;;13.20;99.90;;;;;;5045750;28;20425;-81
2022/09/29 10:03:27;;;;;;;11.00;5.70;;;13.20;99.90;;;;;;5061864;28;20466;-81
2022/09/29 10:05:56;;;;;;;11.18;5.32;;;13.30;99.90;;;;;;5047980;28;20047;-81
2022/09/29 10:08:25;;;;;;;10.68;4.93;;;13.30;99.90;;;;;;5062882;28;20051;-81
2022/09/29 10:10:53;;;;;;;8.48;4.97;;;13.40;99.90;;;;;;5049667;28;20041;-81
2022/09/29 10:13:20;;;;;;;9.10;4.72;;;13.40;99.90;;;;;;5050077;28;20045;-81
2022/09/29 10:15:52;;;;;;;7.68;4.18;;;13.40;99.90;;;;;;5048868;28;20052;-81
2022/09/29 10:18:22;;;;;;;12.35;4.75;;;13.40;99.90;;;;;;5053497;28;20045;-81
2022/09/29 10:20:49;;;;;;;7.35;4.07;;;13.50;99.90;;;;;;5049862;28;20413;-78
2022/09/29 10:23:25;;;;;;;7.70;3.28;;;13.50;99.90;;;;;;5049368;28;20047;-78
2022/09/29 10:25:55;;;;;;;6.35;2.92;;;13.60;99.90;;;;;;5048598;28;20502;-77
2022/09/29 10:28:23;;;;;;;5.55;2.30;;;13.60;99.90;;;;;;5052148;28;20049;-77
2022/09/29 10:30:50;;;;;;;7.28;2.28;;;13.70;99.90;;;;;;5049158;28;20103;-78
2022/09/29 10:33:18;;;;;;;5.30;2.83;;;13.60;99.90;;;;;;5049386;28;20052;-78
2022/09/29 10:35:47;;;;;;;9.23;3.50;;;13.70;99.90;;;;;;5048451;28;20051;-78
2022/09/29 10:38:22;;;;;;;6.38;3.13;;;13.70;99.90;;;;;;5052831;28;20489;-79
2022/09/29 10:40:57;;;;;;;9.18;3.95;;;13.70;99.90;;;;;;5051059;28;20072;-78
2022/09/29 10:43:26;;;;;;;9.45;3.65;;;13.80;99.90;;;;;;5048465;28;20048;-78
2022/09/29 10:45:57;;;;;;;9.80;3.83;;;13.80;99.90;;;;;;5048701;28;20056;-78
2022/09/29 10:48:25;;;;;;;7.72;4.20;;;13.70;99.90;;;;;;5055754;28;20458;-78
2022/09/29 10:50:54;;;;;;;11.73;4.45;;;13.70;99.90;;;;;;5045444;28;20551;-78
2022/09/29 10:53:26;;;;;;;7.53;4.00;;;13.70;99.90;;;;;;5047957;28;20072;-78
2022/09/29 10:55:55;;;;;;;7.03;3.33;;;13.90;99.90;;;;;;5061249;28;20288;-79
2022/09/29 10:58:30;;;;;;;8.02;3.15;;;13.80;99.90;;;;;;5060350;28;20056;-79
2022/09/29 11:01:07;;;;;;;7.82;3.28;;;13.80;99.90;;;;;;5069044;28;20054;-78
2022/09/29 11:03:35;;;;;;;7.68;3.17;;;13.80;99.90;;;;;;5060438;28;20091;-79
2022/09/29 11:06:04;;;;;;;5.60;3.13;;;13.80;99.90;;;;;;5028270;28;20041;-83
2022/09/29 11:08:32;;;;;;;6.47;2.90;;;13.80;99.90;;;;;;5045579;28;20045;-79
2022/09/29 11:11:05;;;;;;;6.47;3.10;;;13.80;99.90;;;;;;5051345;28;20036;-78
2022/09/29 11:13:36;;;;;;;5.90;3.00;;;13.80;99.90;;;;;;5048295;28;20041;-78
2022/09/29 11:16:14;;;;;;;6.53;3.10;;;13.90;99.90;;;;;;5028159;28;20417;-79
2022/09/29 11:18:42;;;;;;;6.15;3.25;;;13.90;99.90;;;;;;5054424;28;20056;-78
2022/09/29 11:21:40;;;;;;;7.50;3.53;;;13.90;99.90;;;;;;5041538;28;20511;-79
2022/09/29 11:24:16;;;;;;;7.78;3.30;;;13.90;99.90;;;;;;5049313;28;20055;-79
2022/09/29 11:26:46;;;;;;;7.85;3.65;;;14.00;99.90;;;;;;5050670;28;20049;-79
2022/09/29 11:29:28;;;;;;;7.93;3.42;;;14.00;99.90;;;;;;5057642;28;20064;-78
2022/09/29 11:32:11;;;;;;;5.55;2.55;;;14.00;99.90;;;;;;5047948;28;20041;-79
2022/09/29 11:34:50;;;;;;;6.15;3.40;;;14.00;99.90;;;;;;5046995;28;20041;-78
2022/09/29 11:37:28;;;;;;;6.28;2.88;;;14.10;99.90;;;;;;5051215;28;20044;-80
2022/09/29 11:40:03;;;;;;;6.53;3.05;;;14.10;99.90;;;;;;5050604;28;20048;-78
2022/09/29 11:42:42;;;;;;;7.47;2.78;;;14.10;99.90;;;;;;5048344;28;20052;-79
2022/09/29 11:45:14;;;;;;;4.95;2.55;;;14.10;99.90;;;;;;5047055;28;20517;-78
2022/09/29 11:48:01;;;;;;;;;;;14.20;99.90;;;;;;5055430;28;20749;-78
2022/09/29 11:50:35;;;;;;;5.07;2.40;;;14.20;99.90;;;;;;5042048;28;19939;-77
2022/09/29 11:53:20;;;;;;;4.22;2.17;;;14.20;99.90;;;;;;5048938;28;20049;-78
2022/09/29 11:55:57;;;;;;;5.90;2.50;;;14.20;99.90;;;;;;5042569;28;20052;-77
2022/09/29 11:58:46;;;;;;;5.70;2.30;;;14.30;99.90;;;;;;5063847;28;20402;-79
2022/09/29 12:01:34;;;;;;;5.25;2.22;;;14.20;99.90;;;;;;5049325;28;20049;-79
2022/09/29 12:04:14;;;;;;;6.38;2.75;;;14.20;99.90;;;;;;5021923;28;20057;-80
2022/09/29 12:06:54;;;;;;;4.75;2.40;;;14.20;99.90;;;;;;5053150;28;20051;-81
2022/09/29 12:09:40;;;;;;;7.82;2.42;;;14.20;99.90;;;;;;5066819;28;20053;-81
2022/09/29 12:12:13;;;;;;;5.18;2.40;;;14.20;99.90;;;;;;5056347;28;20417;-80
2022/09/29 12:14:52;;;;;;;4.88;2.28;;;14.30;99.90;;;;;;5052103;28;20052;-80
2022/09/29 12:17:31;;;;;;;7.28;2.00;;;14.30;99.90;;;;;;5054229;28;20045;-81
2022/09/29 12:20:04;;;;;;;6.07;2.17;;;14.30;99.90;;;;;;5051489;28;20048;-80
2022/09/29 12:22:32;;;;;;;6.20;2.50;;;14.30;99.90;;;;;;5021605;22;20100;-85
2022/09/29 12:24:59;;;;;;;5.78;2.30;;;14.40;99.90;;;;;;4989657;28;20034;-85
2022/09/29 12:27:32;;;;;;;7.88;2.63;;;14.40;99.90;;;;;;4999010;28;20046;-86
2022/09/29 12:30:03;;;;;;;4.60;2.00;;;14.40;99.90;;;;;;4999966;28;20133;-86
2022/09/29 12:32:35;;;;;;;5.32;2.72;;;14.50;99.90;;;;;;4992449;28;20049;-85
2022/09/29 12:35:06;;;;;;;5.00;2.38;;;14.40;99.90;;;;;;4991392;28;20058;-86
2022/09/29 12:37:36;;;;;;;9.65;2.45;;;14.50;99.90;;;;;;4993740;28;20049;-86
2022/09/29 12:40:08;;;;;;;6.78;2.60;;;14.50;99.90;;;;;;4999237;28;20058;-85
2022/09/29 12:42:48;;;;;;;5.53;2.70;;;14.60;99.90;;;;;;4991690;28;20570;-86
2022/09/29 12:45:22;;;;;;;5.90;2.17;;;14.60;99.90;;;;;;4991507;28;20128;-86
2022/09/29 12:47:56;;;;;;;5.05;2.20;;;14.60;99.90;;;;;;4993212;28;20042;-86
2022/09/29 12:50:28;;;;;;;5.85;2.50;;;14.60;99.90;;;;;;4973806;28;20053;-86
2022/09/29 12:52:57;;;;;;;5.40;2.03;;;14.60;99.90;;;;;;4991577;28;20050;-87
2022/09/29 12:55:34;;;;;;;6.25;2.20;;;14.60;99.90;;;;;;4991408;28;20141;-87
2022/09/29 12:58:04;;;;;;;7.88;2.50;;;14.60;99.90;;;;;;4996855;28;20045;-86
2022/09/29 13:00:33;;;;;;;5.03;2.20;;;14.70;99.90;;;;;;4997426;28;20042;-85
2022/09/29 13:03:43;;;;;;;6.53;2.10;;;14.60;99.90;;;;;;4974137;28;20074;-85